createdAt,value
2023-03-18T00:02:10.187Z,97244.97
2023-03-18T00:04:37.088Z,97251.94
2023-03-18T00:07:03.942Z,97253.81
2023-03-18T00:09:32.305Z,97246.78
2023-03-18T00:11:59.106Z,97242.75
2023-03-18T00:14:26.012Z,97244.63
2023-03-18T00:16:52.827Z,97240.34
2023-03-18T00:19:19.626Z,97244.09
2023-03-18T00:21:46.472Z,97251.13
2023-03-18T00:24:13.281Z,97250.09
2023-03-18T00:26:41.430Z,97248.47
2023-03-18T00:29:08.297Z,97258.44
2023-03-18T00:31:35.482Z,97256.81
2023-03-18T00:34:02.327Z,97254.72
2023-03-18T00:36:29.165Z,97255.78
2023-03-18T00:38:56.297Z,97251.78
2023-03-18T00:41:23.733Z,97257.47
2023-03-18T00:43:52.219Z,97264.75
2023-03-18T00:46:20.146Z,97239.34
2023-03-18T00:48:47.165Z,97261.00
2023-03-18T00:51:14.700Z,97254.25
2023-03-18T00:53:41.656Z,97273.91
2023-03-18T00:56:08.616Z,97274.13
2023-03-18T00:58:35.813Z,97281.06
2023-03-18T01:01:04.242Z,97283.47
2023-03-18T01:03:31.418Z,97281.06
2023-03-18T01:05:58.370Z,97278.16
2023-03-18T01:08:25.175Z,97281.66
2023-03-18T01:10:51.977Z,97280.34
2023-03-18T01:13:18.975Z,97283.03
2023-03-18T01:15:45.825Z,97279.28
2023-03-18T01:18:13.994Z,97275.78
2023-03-18T01:20:40.842Z,97270.41
2023-03-18T01:23:07.645Z,97283.03
2023-03-18T01:25:34.550Z,97279.84
2023-03-18T01:28:01.362Z,97286.56
2023-03-18T01:30:28.208Z,97284.47
2023-03-18T01:32:55.377Z,97288.47
2023-03-18T01:35:24.201Z,97283.16
2023-03-18T01:37:51.359Z,97284.47
2023-03-18T01:40:18.444Z,97284.47
2023-03-18T01:42:47.856Z,97291.44
2023-03-18T01:45:17.050Z,97299.75
2023-03-18T01:47:43.891Z,97292.19
2023-03-18T01:50:10.859Z,97294.88
2023-03-18T01:52:39.297Z,97301.66
2023-03-18T01:55:08.344Z,97302.72
2023-03-18T01:57:35.412Z,97291.41
2023-03-18T02:00:03.807Z,97299.75
2023-03-18T02:02:30.631Z,97302.44
2023-03-18T02:04:59.004Z,97303.56
2023-03-18T02:07:27.157Z,97308.66
2023-03-18T02:09:56.797Z,97304.34
2023-03-18T02:12:24.750Z,97304.91
2023-03-18T02:14:52.355Z,97311.41
2023-03-18T02:17:21.184Z,97307.66
2023-03-18T02:19:57.715Z,97310.34
2023-03-18T02:22:27.828Z,97317.41
2023-03-18T02:25:04.015Z,97321.16
2023-03-18T02:27:33.232Z,97319.00
2023-03-18T02:30:02.532Z,97314.19
2023-03-18T02:32:31.035Z,97311.50
2023-03-18T02:35:00.168Z,97317.63
2023-03-18T02:37:27.041Z,97315.97
2023-03-18T02:39:54.116Z,97321.06
2023-03-18T02:42:27.646Z,97317.06
2023-03-18T02:44:55.914Z,97317.56
2023-03-18T02:47:24.692Z,97319.22
2023-03-18T02:49:53.157Z,97326.00
2023-03-18T02:52:20.005Z,97327.03
2023-03-18T02:54:46.796Z,97328.41
2023-03-18T02:57:13.666Z,97329.72
2023-03-18T02:59:40.522Z,97325.16
2023-03-18T03:02:08.752Z,97324.97
2023-03-18T03:04:35.547Z,97325.47
2023-03-18T03:07:02.413Z,97324.97
2023-03-18T03:09:29.262Z,97338.44
2023-03-18T03:11:56.063Z,97341.13
2023-03-18T03:14:22.925Z,97334.44
2023-03-18T03:16:49.794Z,97337.13
2023-03-18T03:19:18.008Z,97341.16
2023-03-18T03:21:44.847Z,97339.31
2023-03-18T03:24:11.648Z,97342.75
2023-03-18T03:26:38.439Z,97345.44
2023-03-18T03:29:05.686Z,97344.31
2023-03-18T03:31:32.762Z,97348.88
2023-03-18T03:33:59.793Z,97345.66
2023-03-18T03:36:28.021Z,97355.38
2023-03-18T03:38:54.827Z,97352.16
2023-03-18T03:41:21.641Z,97353.75
2023-03-18T03:43:48.478Z,97358.34
2023-03-18T03:46:15.483Z,97367.50
2023-03-18T03:48:42.368Z,97371.81
2023-03-18T03:51:09.219Z,97375.34
2023-03-18T03:53:37.371Z,97379.91
2023-03-18T03:56:04.411Z,97376.41
2023-03-18T03:58:31.250Z,97375.09
2023-03-18T04:00:58.063Z,97371.63
2023-03-18T04:03:24.873Z,97378.06
2023-03-18T04:05:51.709Z,97377.00
2023-03-18T04:08:18.518Z,97377.03
2023-03-18T04:10:46.706Z,97385.88
2023-03-18T04:13:13.650Z,97386.47
2023-03-18T04:15:40.594Z,97393.69
2023-03-18T04:18:07.449Z,97388.31
2023-03-18T04:20:34.462Z,97386.28
2023-03-18T04:23:01.770Z,97388.69
2023-03-18T04:25:28.669Z,97356.41
2023-03-18T04:27:57.440Z,97379.13
2023-03-18T04:30:24.693Z,97371.00
2023-03-18T04:32:51.998Z,97372.59
2023-03-18T04:35:18.924Z,97377.69
2023-03-18T04:37:45.749Z,97379.59
2023-03-18T04:40:12.702Z,97386.03
2023-03-18T04:42:39.711Z,97357.00
2023-03-18T04:45:08.491Z,97388.09
2023-03-18T04:47:35.313Z,97386.72
2023-03-18T04:50:02.127Z,97395.13
2023-03-18T04:52:28.921Z,97406.81
2023-03-18T04:54:55.845Z,97402.22
2023-03-18T04:57:22.738Z,97402.50
2023-03-18T04:59:49.554Z,97402.50
2023-03-18T05:02:17.747Z,97391.72
2023-03-18T05:04:44.601Z,97405.16
2023-03-18T05:07:12.449Z,97395.47
2023-03-18T05:09:39.255Z,97399.53
2023-03-18T05:12:06.573Z,97402.50
2023-03-18T05:14:33.373Z,97400.09
2023-03-18T05:17:00.178Z,97393.66
2023-03-18T05:19:28.399Z,97395.28
2023-03-18T05:21:55.200Z,97399.03
2023-03-18T05:24:22.005Z,97394.47
2023-03-18T05:26:48.851Z,97399.53
2023-03-18T05:29:15.682Z,97402.19
2023-03-18T05:31:42.592Z,97397.69
2023-03-18T05:34:09.551Z,97397.56
2023-03-18T05:36:37.701Z,97403.47
2023-03-18T05:39:04.493Z,97408.47
2023-03-18T05:41:31.303Z,97407.22
2023-03-18T05:43:58.116Z,97417.84
2023-03-18T05:46:25.062Z,97410.53
2023-03-18T05:48:51.980Z,97415.53
2023-03-18T05:51:18.764Z,97408.41
2023-03-18T05:53:46.954Z,97404.19
2023-03-18T05:56:52.565Z,97416.47
2023-03-18T05:59:21.308Z,97410.88
2023-03-18T06:01:48.223Z,97405.41
2023-03-18T06:04:15.110Z,97406.53
2023-03-18T06:06:41.912Z,97409.66
2023-03-18T06:09:09.425Z,97410.72
2023-03-18T06:11:36.724Z,97410.72
2023-03-18T06:14:05.770Z,97413.72
2023-03-18T06:16:32.878Z,97417.13
2023-03-18T06:19:00.027Z,97424.13
2023-03-18T06:21:26.840Z,97417.59
2023-03-18T06:23:53.790Z,97424.22
2023-03-18T06:26:20.686Z,97429.97
2023-03-18T06:28:47.538Z,97432.38
2023-03-18T06:31:15.786Z,97431.03
2023-03-18T06:33:42.768Z,97427.81
2023-03-18T06:36:09.730Z,97409.72
2023-03-18T06:38:36.558Z,97428.97
2023-03-18T06:41:03.930Z,97430.66
2023-03-18T06:43:30.724Z,97436.41
2023-03-18T06:45:57.540Z,97444.78
2023-03-18T06:48:25.886Z,97442.59
2023-03-18T06:50:52.693Z,97434.53
2023-03-18T06:53:19.539Z,97439.94
2023-03-18T06:55:46.370Z,97448.84
2023-03-18T06:58:13.148Z,97448.25
2023-03-18T07:00:39.963Z,97452.84
2023-03-18T07:03:06.942Z,97455.63
2023-03-18T07:05:35.196Z,97461.88
2023-03-18T07:08:02.078Z,97470.81
2023-03-18T07:10:30.037Z,97467.09
2023-03-18T07:12:56.864Z,97468.75
2023-03-18T07:15:24.164Z,97475.84
2023-03-18T07:17:51.141Z,97472.38
2023-03-18T07:20:18.032Z,97471.88
2023-03-18T07:22:46.969Z,97475.91
2023-03-18T07:25:13.975Z,97470.22
2023-03-18T07:27:41.031Z,97484.56
2023-03-18T07:30:08.542Z,97496.91
2023-03-18T07:32:35.469Z,97497.41
2023-03-18T07:35:03.262Z,97489.59
2023-03-18T07:37:30.082Z,97487.50
2023-03-18T07:39:58.278Z,97487.78
2023-03-18T07:42:25.121Z,97484.81
2023-03-18T07:44:51.942Z,97479.69
2023-03-18T07:47:18.767Z,97487.25
2023-03-18T07:49:45.607Z,97478.41
2023-03-18T07:52:12.462Z,97487.53
2023-03-18T07:54:39.436Z,97484.03
2023-03-18T07:57:07.659Z,97488.06
2023-03-18T07:59:34.477Z,97494.53
2023-03-18T08:02:01.299Z,97484.66
2023-03-18T08:04:28.489Z,97487.09
2023-03-18T08:06:55.348Z,97488.16
2023-03-18T08:09:22.178Z,97486.63
2023-03-18T08:11:48.972Z,97494.16
2023-03-18T08:14:17.150Z,97487.69
2023-03-18T08:16:44.018Z,97491.22
2023-03-18T08:19:10.847Z,97491.75
2023-03-18T08:21:37.670Z,97496.84
2023-03-18T08:24:04.880Z,97505.97
2023-03-18T08:26:31.687Z,97508.16
2023-03-18T08:28:58.476Z,97497.09
2023-03-18T08:31:26.765Z,97506.56
2023-03-18T08:33:53.607Z,97496.59
2023-03-18T08:36:20.423Z,97499.53
2023-03-18T08:38:47.301Z,97503.34
2023-03-18T08:41:14.126Z,97497.19
2023-03-18T08:43:40.922Z,97493.69
2023-03-18T08:46:07.784Z,97495.28
2023-03-18T08:48:35.998Z,97495.81
2023-03-18T08:51:03.617Z,97499.97
2023-03-18T08:53:30.443Z,97508.03
2023-03-18T08:55:57.291Z,97503.28
2023-03-18T08:58:24.174Z,97501.38
2023-03-18T09:00:51.076Z,97505.06
2023-03-18T09:03:17.902Z,97502.72
2023-03-18T09:05:48.852Z,97500.38
2023-03-18T09:08:15.821Z,97500.47
2023-03-18T09:10:44.685Z,97498.09
2023-03-18T09:13:11.483Z,97494.28
2023-03-18T09:15:38.490Z,97498.09
2023-03-18T09:18:11.501Z,97500.78
2023-03-18T09:20:38.706Z,97505.66
2023-03-18T09:23:06.971Z,97498.13
2023-03-18T09:25:34.124Z,97505.59
2023-03-18T09:28:01.261Z,97511.78
2023-03-18T09:30:28.130Z,97508.31
2023-03-18T09:32:54.996Z,97506.41
2023-03-18T09:35:22.423Z,97490.56
2023-03-18T09:37:49.221Z,97501.00
2023-03-18T09:40:22.040Z,97501.84
2023-03-18T09:42:55.259Z,97497.81
2023-03-18T09:45:27.942Z,97487.34
2023-03-18T09:48:13.544Z,97497.59
2023-03-18T09:50:42.475Z,97495.13
2023-03-18T09:53:14.786Z,97495.13
2023-03-18T09:55:43.979Z,97487.88
2023-03-18T09:58:16.308Z,97491.91
2023-03-18T10:00:43.197Z,97496.47
2023-03-18T10:03:13.671Z,97501.81
2023-03-18T10:05:44.304Z,97497.25
2023-03-18T10:08:14.248Z,97500.69
2023-03-18T10:10:43.601Z,97493.00
2023-03-18T10:13:14.527Z,97494.91
2023-03-18T10:15:42.742Z,97490.91
2023-03-18T10:18:11.853Z,97493.72
2023-03-18T10:20:47.633Z,97487.00
2023-03-18T10:23:23.509Z,97486.13
2023-03-18T10:25:52.505Z,97496.38
2023-03-18T10:28:36.968Z,97499.38
2023-03-18T10:31:10.895Z,97493.00
2023-03-18T10:33:45.373Z,97490.63
2023-03-18T10:36:13.073Z,97482.56
2023-03-18T10:38:42.629Z,97481.59
2023-03-18T10:41:14.513Z,97486.13
2023-03-18T10:43:41.622Z,97483.94
2023-03-18T10:46:11.808Z,97478.53
2023-03-18T10:48:42.191Z,97479.06
2023-03-18T10:51:12.615Z,97475.38
2023-03-18T10:53:42.772Z,97485.06
2023-03-18T10:56:10.687Z,97477.84
2023-03-18T10:58:37.969Z,97471.63
2023-03-18T11:01:05.994Z,97472.75
2023-03-18T11:03:35.498Z,97472.47
2023-03-18T11:06:04.410Z,97473.00
2023-03-18T11:08:36.367Z,97463.53
2023-03-18T11:11:14.911Z,97462.78
2023-03-18T11:13:45.801Z,97462.84
2023-03-18T11:16:20.208Z,97465.31
2023-03-18T11:18:49.242Z,97461.47
2023-03-18T11:21:16.090Z,97456.19
2023-03-18T11:23:49.530Z,97454.81
2023-03-18T11:26:20.347Z,97449.66
2023-03-18T11:28:47.152Z,97445.16
2023-03-18T11:31:16.825Z,97450.28
2023-03-18T11:33:43.940Z,97455.38
2023-03-18T11:36:14.020Z,97454.56
2023-03-18T11:38:40.916Z,97443.81
2023-03-18T11:41:08.330Z,97442.75
2023-03-18T11:43:36.093Z,97432.47
2023-03-18T11:46:04.041Z,97445.84
2023-03-18T11:48:33.165Z,97440.19
2023-03-18T11:51:12.662Z,97433.13
2023-03-18T11:53:50.353Z,97426.16
2023-03-18T11:56:21.776Z,97426.72
2023-03-18T11:59:00.534Z,97418.38
2023-03-18T12:01:32.772Z,97414.66
2023-03-18T12:04:18.419Z,97408.47
2023-03-18T12:06:53.941Z,97406.81
2023-03-18T12:09:24.565Z,97403.31
2023-03-18T12:12:03.344Z,97404.91
2023-03-18T12:14:34.883Z,97404.13
2023-03-18T12:17:08.289Z,97395.19
2023-03-18T12:19:46.359Z,97395.19
2023-03-18T12:22:23.017Z,97385.19
2023-03-18T12:25:00.450Z,97385.19
2023-03-18T12:27:33.743Z,97390.03
2023-03-18T12:30:07.859Z,97378.69
2023-03-18T12:32:37.897Z,97367.63
2023-03-18T12:35:19.502Z,97372.97
2023-03-18T12:37:57.259Z,97364.84
2023-03-18T12:40:30.201Z,97358.78
2023-03-18T12:43:22.285Z,97362.72
2023-03-18T12:45:53.012Z,97349.44
2023-03-18T12:48:40.683Z,97356.19
2023-03-18T12:51:10.661Z,97328.25
2023-03-18T12:53:39.047Z,97345.31
2023-03-18T12:56:11.530Z,97348.00
2023-03-18T12:58:41.710Z,97336.69
2023-03-18T13:01:11.794Z,97339.34
2023-03-18T13:03:39.693Z,97330.75
2023-03-18T13:06:08.955Z,97334.00
2023-03-18T13:08:59.527Z,97333.63
2023-03-18T13:11:33.184Z,97333.88
2023-03-18T13:14:03.574Z,97343.81
2023-03-18T13:16:31.343Z,97340.28
2023-03-18T13:18:59.042Z,97341.63
2023-03-18T13:21:29.233Z,97337.25
2023-03-18T13:24:15.702Z,97337.69
2023-03-18T13:26:57.604Z,97335.06
2023-03-18T13:29:31.629Z,97336.94
2023-03-18T13:32:05.053Z,97346.09
2023-03-18T13:34:49.057Z,97355.19
2023-03-18T13:37:29.047Z,97353.53
2023-03-18T13:40:14.742Z,97355.19
2023-03-18T13:42:43.770Z,97358.97
2023-03-18T13:45:15.286Z,97353.59
2023-03-18T13:47:43.068Z,97358.97
2023-03-18T13:50:23.284Z,97335.34
2023-03-18T13:52:53.810Z,97352.50
2023-03-18T13:55:25.353Z,97341.94
2023-03-18T13:58:07.487Z,97335.72
2023-03-18T14:00:35.061Z,97328.44
2023-03-18T14:03:06.679Z,97328.44
2023-03-18T14:05:35.415Z,97319.97
2023-03-18T14:08:04.073Z,97324.56
2023-03-18T14:10:30.909Z,97323.69
2023-03-18T14:13:19.092Z,97323.63
2023-03-18T14:15:46.073Z,97303.38
2023-03-18T14:18:21.396Z,97315.09
2023-03-18T14:20:52.268Z,97316.31
2023-03-18T14:23:25.789Z,97304.63
2023-03-18T14:25:59.932Z,97297.81
2023-03-18T14:28:28.901Z,97288.34
2023-03-18T14:31:13.521Z,97290.75
2023-03-18T14:33:49.985Z,97277.44
2023-03-18T14:36:16.874Z,97286.75
2023-03-18T14:38:46.427Z,97300.56
2023-03-18T14:41:16.302Z,97290.06
2023-03-18T14:43:47.094Z,97292.06
2023-03-18T14:46:16.896Z,97289.56
2023-03-18T14:48:43.763Z,97292.13
2023-03-18T14:51:11.981Z,97284.13
2023-03-18T14:53:40.017Z,97286.50
2023-03-18T14:56:16.617Z,97279.81
2023-03-18T14:58:46.271Z,97283.53
2023-03-18T15:01:13.940Z,97278.56
2023-03-18T15:03:43.080Z,97276.06
2023-03-18T15:06:16.390Z,97279.97
2023-03-18T15:08:48.601Z,97274.47
2023-03-18T15:11:17.482Z,97269.19
2023-03-18T15:13:45.685Z,97271.28
2023-03-18T15:16:20.076Z,97275.09
2023-03-18T15:18:51.309Z,97268.56
2023-03-18T15:21:20.227Z,97270.38
2023-03-18T15:23:48.464Z,97276.28
2023-03-18T15:26:19.025Z,97273.16
2023-03-18T15:28:47.707Z,97275.44
2023-03-18T15:31:23.809Z,97271.25
2023-03-18T15:33:55.681Z,97272.34
2023-03-18T15:36:22.796Z,97263.84
2023-03-18T15:38:50.234Z,97265.09
2023-03-18T15:41:18.709Z,97276.88
2023-03-18T15:43:47.632Z,97262.06
2023-03-18T15:46:15.937Z,97268.03
2023-03-18T15:48:45.133Z,97274.81
2023-03-18T15:51:23.117Z,97272.91
2023-03-18T15:53:51.961Z,97271.00
2023-03-18T15:56:23.749Z,97264.78
2023-03-18T15:58:59.042Z,97266.69
2023-03-18T16:01:25.869Z,97265.59
2023-03-18T16:03:52.753Z,97265.31
2023-03-18T16:06:19.602Z,97263.81
2023-03-18T16:08:46.425Z,97258.63
2023-03-18T16:11:13.890Z,97266.50
2023-03-18T16:13:40.794Z,97270.59
2023-03-18T16:16:14.807Z,97272.19
2023-03-18T16:18:41.643Z,97277.28
2023-03-18T16:21:09.258Z,97273.59
2023-03-18T16:23:36.056Z,97277.88
2023-03-18T16:26:03.039Z,97283.66
2023-03-18T16:28:29.856Z,97278.66
2023-03-18T16:30:56.682Z,97282.72
2023-03-18T16:33:24.987Z,97284.63
2023-03-18T16:35:55.868Z,97280.91
2023-03-18T16:38:22.686Z,97286.28
2023-03-18T16:40:49.535Z,97289.00
2023-03-18T16:43:17.297Z,97294.28
2023-03-18T16:45:44.428Z,97250.94
2023-03-18T16:48:13.954Z,97288.31
2023-03-18T16:50:42.900Z,97291.31
2023-03-18T16:53:14.049Z,97298.59
2023-03-18T16:55:40.873Z,97292.72
2023-03-18T16:58:10.781Z,97301.88
2023-03-18T17:00:37.658Z,97304.91
2023-03-18T17:03:04.448Z,97308.94
2023-03-18T17:05:31.535Z,97301.47
2023-03-18T17:07:59.863Z,97300.44
2023-03-18T17:10:27.394Z,97297.53
2023-03-18T17:12:55.964Z,97302.69
2023-03-18T17:15:25.731Z,97302.47
2023-03-18T17:17:52.608Z,97296.56
2023-03-18T17:20:20.481Z,97292.78
2023-03-18T17:22:48.015Z,97304.38
2023-03-18T17:25:16.296Z,97302.47
2023-03-18T17:27:44.650Z,97306.56
2023-03-18T17:30:18.573Z,97302.25
2023-03-18T17:32:45.627Z,97302.75
2023-03-18T17:35:14.006Z,97303.78
2023-03-18T17:37:40.836Z,97308.88
2023-03-18T17:40:08.126Z,97304.59
2023-03-18T17:42:36.317Z,97303.25
2023-03-18T17:45:05.143Z,97301.97
2023-03-18T17:47:32.162Z,97305.81
2023-03-18T17:49:58.944Z,97300.00
2023-03-18T17:52:25.809Z,97310.06
2023-03-18T17:54:52.679Z,97302.53
2023-03-18T17:57:19.469Z,97302.03
2023-03-18T17:59:47.691Z,97304.16
2023-03-18T18:02:15.519Z,97304.19
2023-03-18T18:04:42.329Z,97306.16
2023-03-18T18:07:15.627Z,97314.84
2023-03-18T18:09:42.446Z,97317.25
2023-03-18T18:12:13.893Z,97322.94
2023-03-18T18:14:40.732Z,97320.53
2023-03-18T18:17:11.710Z,97325.13
2023-03-18T18:19:38.511Z,97322.94
2023-03-18T18:22:05.580Z,97319.66
2023-03-18T18:24:32.413Z,97318.56
2023-03-18T18:26:59.285Z,97304.81
2023-03-18T18:29:26.984Z,97293.72
2023-03-18T18:31:54.254Z,97292.91
2023-03-18T18:34:22.581Z,97305.09
2023-03-18T18:36:49.664Z,97305.59
2023-03-18T18:39:16.526Z,97310.75
2023-03-18T18:41:43.362Z,97312.38
2023-03-18T18:44:10.270Z,97311.03
2023-03-18T18:46:37.203Z,97320.47
2023-03-18T18:49:04.056Z,97320.75
2023-03-18T18:51:32.284Z,97321.31
2023-03-18T18:53:59.085Z,97309.47
2023-03-18T18:56:29.998Z,97318.44
2023-03-18T18:58:56.954Z,97316.03
2023-03-18T19:01:23.991Z,97314.72
2023-03-18T19:03:50.826Z,97318.50
2023-03-18T19:06:20.384Z,97320.41
2023-03-18T19:08:48.560Z,97316.31
2023-03-18T19:11:18.165Z,97312.78
2023-03-18T19:13:45.142Z,97313.78
2023-03-18T19:16:19.010Z,97303.28
2023-03-18T19:18:45.898Z,97305.38
2023-03-18T19:21:12.712Z,97302.16
2023-03-18T19:23:39.535Z,97302.50
2023-03-18T19:26:11.149Z,97301.91
2023-03-18T19:28:47.556Z,97305.41
2023-03-18T19:31:19.237Z,97298.19
2023-03-18T19:33:46.561Z,97297.16
2023-03-18T19:36:18.688Z,97291.78
2023-03-18T19:38:45.583Z,97296.88
2023-03-18T19:41:13.755Z,97299.56
2023-03-18T19:43:40.630Z,97302.31
2023-03-18T19:46:12.202Z,97304.22
2023-03-18T19:48:39.033Z,97302.91
2023-03-18T19:51:05.908Z,97300.50
2023-03-18T19:53:35.756Z,97302.38
2023-03-18T19:56:02.870Z,97299.69
2023-03-18T19:58:31.156Z,97306.69
2023-03-18T20:00:58.022Z,97306.31
2023-03-18T20:03:26.919Z,97311.44
2023-03-18T20:05:53.869Z,97314.34
2023-03-18T20:08:20.653Z,97315.66
2023-03-18T20:10:47.445Z,97310.88
2023-03-18T20:13:15.412Z,97315.53
2023-03-18T20:15:43.770Z,97317.94
2023-03-18T20:18:14.757Z,97317.41
2023-03-18T20:20:43.064Z,97315.81
2023-03-18T20:23:11.607Z,97323.38
2023-03-18T20:25:39.216Z,97320.69
2023-03-18T20:28:06.813Z,97326.59
2023-03-18T20:30:34.518Z,97328.53
2023-03-18T20:33:02.874Z,97333.91
2023-03-18T20:35:30.976Z,97338.00
2023-03-18T20:37:59.014Z,97345.81
2023-03-18T20:40:27.155Z,97335.31
2023-03-18T20:42:53.993Z,97336.38
2023-03-18T20:45:21.767Z,97331.81
2023-03-18T20:47:49.079Z,97332.91
2023-03-18T20:50:18.304Z,97333.91
2023-03-18T20:52:45.823Z,97331.47
2023-03-18T20:55:19.296Z,97332.78
2023-03-18T20:57:46.095Z,97326.03
2023-03-18T21:00:14.062Z,97338.38
2023-03-18T21:02:40.986Z,97337.38
2023-03-18T21:05:10.230Z,97338.75
2023-03-18T21:07:38.419Z,97337.97
2023-03-18T21:10:05.712Z,97329.88
2023-03-18T21:12:36.631Z,97330.16
2023-03-18T21:15:03.742Z,97343.34
2023-03-18T21:17:30.653Z,97350.88
2023-03-18T21:20:05.017Z,97352.00
2023-03-18T21:22:39.824Z,97332.38
2023-03-18T21:25:08.932Z,97336.97
2023-03-18T21:27:35.949Z,97336.16
2023-03-18T21:30:02.871Z,97337.78
2023-03-18T21:32:30.786Z,97346.66
2023-03-18T21:34:57.690Z,97348.28
2023-03-18T21:37:26.126Z,97330.38
2023-03-18T21:39:54.342Z,97345.56
2023-03-18T21:42:22.767Z,97343.63
2023-03-18T21:44:49.818Z,97336.84
2023-03-18T21:47:17.456Z,97334.72
2023-03-18T21:49:44.741Z,97340.94
2023-03-18T21:52:16.254Z,97335.53
2023-03-18T21:54:43.110Z,97331.22
2023-03-18T21:57:14.008Z,97332.63
2023-03-18T21:59:40.907Z,97335.59
2023-03-18T22:02:16.283Z,97342.59
2023-03-18T22:04:43.166Z,97346.38
2023-03-18T22:07:11.922Z,97351.53
2023-03-18T22:09:38.742Z,97350.97
2023-03-18T22:12:10.795Z,97346.94
2023-03-18T22:14:38.960Z,97353.19
2023-03-18T22:17:10.451Z,97357.00
2023-03-18T22:19:37.303Z,97355.09
2023-03-18T22:22:04.092Z,97363.19
2023-03-18T22:24:31.043Z,97363.69
2023-03-18T22:26:57.974Z,97366.66
2023-03-18T22:29:24.758Z,97374.72
2023-03-18T22:31:52.937Z,97376.53
2023-03-18T22:34:21.791Z,97380.31
2023-03-18T22:36:48.620Z,97371.72
2023-03-18T22:39:15.516Z,97372.81
2023-03-18T22:41:42.396Z,97374.44
2023-03-18T22:44:19.256Z,97377.13
2023-03-18T22:46:46.062Z,97379.00
2023-03-18T22:49:14.217Z,97376.88
2023-03-18T22:51:41.040Z,97373.38
2023-03-18T22:54:14.989Z,97365.59
2023-03-18T22:56:41.826Z,97364.75
2023-03-18T22:59:09.290Z,97369.94
2023-03-18T23:01:36.653Z,97371.81
2023-03-18T23:04:03.533Z,97372.69
2023-03-18T23:06:31.873Z,97372.97
2023-03-18T23:08:58.745Z,97367.84
2023-03-18T23:11:25.672Z,97368.38
2023-03-18T23:13:52.662Z,97370.81
2023-03-18T23:16:20.637Z,97363.56
2023-03-18T23:18:48.029Z,97357.31
2023-03-18T23:21:15.237Z,97365.34
2023-03-18T23:23:43.467Z,97363.19
2023-03-18T23:26:10.520Z,97375.53
2023-03-18T23:28:44.521Z,97370.47
2023-03-18T23:31:12.494Z,97370.47
2023-03-18T23:33:39.564Z,97375.03
2023-03-18T23:36:06.710Z,97371.81
2023-03-18T23:38:33.574Z,97379.06
2023-03-18T23:41:01.791Z,97371.03
2023-03-18T23:43:28.617Z,97371.31
2023-03-18T23:45:55.591Z,97372.41
2023-03-18T23:48:22.471Z,97374.00
2023-03-18T23:50:49.284Z,97364.63
2023-03-18T23:53:16.175Z,97375.19
2023-03-18T23:55:43.003Z,97374.09
2023-03-18T23:58:11.220Z,97379.50
